Time;durP1;ratioP1;P1;durP2;ratioP2;P2;SDS_P1;SDS_P2;PMS_P1;PMS_P2;Temp;Humidity;BMP_temperature;BMP_pressure;BME280_temperature;BME280_humidity;BME280_pressure;Samples;Min_cycle;Max_cycle;Signal;HPM_P1;HPM_P2
2021/08/22 00:00:00;;;;;;;6.03;4.78;;;18.80;93.80;;;;;;5097990;28;20040;-82
2021/08/22 00:02:26;;;;;;;8.93;5.28;;;18.80;93.80;;;;;;5098627;28;20097;-82
2021/08/22 00:04:51;;;;;;;5.82;4.53;;;18.80;93.80;;;;;;5098622;28;20063;-82
2021/08/22 00:07:16;;;;;;;6.25;4.35;;;18.80;93.80;;;;;;5099588;28;20074;-82
2021/08/22 00:09:42;;;;;;;5.47;4.32;;;18.70;93.80;;;;;;5098352;28;20051;-82
2021/08/22 00:12:07;;;;;;;8.35;4.43;;;18.70;93.90;;;;;;5098348;28;20376;-82
2021/08/22 00:14:34;;;;;;;5.32;4.10;;;18.70;93.90;;;;;;5085237;28;20098;-82
2021/08/22 00:16:59;;;;;;;4.88;4.22;;;18.70;94.00;;;;;;5077485;28;20041;-82
2021/08/22 00:19:25;;;;;;;4.45;3.97;;;18.70;94.10;;;;;;5079190;28;20067;-82
2021/08/22 00:21:50;;;;;;;6.18;4.03;;;18.70;94.20;;;;;;5078167;28;20083;-82
2021/08/22 00:24:15;;;;;;;5.90;4.47;;;18.70;94.30;;;;;;5087869;28;20066;-82
2021/08/22 00:26:41;;;;;;;5.60;4.45;;;18.60;94.40;;;;;;5078018;28;20333;-82
2021/08/22 00:29:06;;;;;;;6.10;3.97;;;18.70;94.50;;;;;;5077368;28;20044;-82
2021/08/22 00:31:32;;;;;;;6.25;4.70;;;18.70;94.60;;;;;;5078443;28;20035;-82
2021/08/22 00:33:57;;;;;;;7.43;4.72;;;18.60;94.50;;;;;;5076932;28;20049;-82
2021/08/22 00:36:23;;;;;;;6.40;4.63;;;18.70;94.60;;;;;;5078111;28;20394;-82
2021/08/22 00:38:49;;;;;;;6.57;5.20;;;18.60;94.50;;;;;;5077274;28;20042;-82
2021/08/22 00:41:14;;;;;;;5.88;4.78;;;18.70;94.70;;;;;;5078399;28;20145;-83
2021/08/22 00:43:44;;;;;;;10.02;4.85;;;18.60;94.70;;;;;;5078306;28;20044;-82
2021/08/22 00:46:10;;;;;;;5.45;4.13;;;18.70;94.70;;;;;;5078025;28;20040;-82
2021/08/22 00:48:35;;;;;;;5.85;4.47;;;18.70;94.70;;;;;;5078369;28;20043;-83
2021/08/22 00:51:01;;;;;;;6.22;4.50;;;18.70;94.70;;;;;;5077943;28;20032;-82
2021/08/22 00:53:27;;;;;;;10.75;4.45;;;18.70;94.70;;;;;;5077250;28;20036;-82
2021/08/22 00:55:53;;;;;;;4.85;4.10;;;18.70;94.70;;;;;;5078114;28;20118;-83
2021/08/22 00:58:19;;;;;;;9.52;4.72;;;18.70;94.70;;;;;;5077954;28;20040;-82
2021/08/22 01:00:48;;;;;;;7.28;4.43;;;18.70;94.70;;;;;;5078152;28;20051;-82
2021/08/22 01:03:45;;;;;;;5.43;4.00;;;18.70;94.70;;;;;;5078301;28;20051;-82
2021/08/22 01:06:32;;;;;;;5.13;4.43;;;18.70;94.70;;;;;;5077239;28;20041;-82
2021/08/22 01:09:02;;;;;;;6.25;4.82;;;18.70;94.60;;;;;;5077775;28;20064;-82
2021/08/22 01:11:32;;;;;;;5.90;4.45;;;18.70;94.70;;;;;;5076736;28;20041;-82
2021/08/22 01:14:02;;;;;;;6.75;4.25;;;18.70;94.70;;;;;;5076640;28;20048;-82
2021/08/22 01:16:32;;;;;;;5.55;4.45;;;18.80;94.80;;;;;;5077308;28;20275;-82
2021/08/22 01:19:02;;;;;;;7.72;4.30;;;18.80;94.70;;;;;;5077608;28;20048;-82
2021/08/22 01:21:28;;;;;;;5.32;3.72;;;18.80;94.70;;;;;;5077979;28;20051;-82
2021/08/22 01:23:57;;;;;;;4.90;3.83;;;18.80;94.70;;;;;;5077555;28;20036;-81
2021/08/22 01:26:28;;;;;;;4.60;3.88;;;18.80;94.70;;;;;;5076791;28;20318;-82
2021/08/22 01:28:56;;;;;;;5.80;4.15;;;18.70;94.60;;;;;;5077025;28;20040;-82
2021/08/22 01:31:35;;;;;;;6.63;4.97;;;18.80;94.70;;;;;;5098072;28;20092;-82
2021/08/22 01:34:01;;;;;;;5.47;4.18;;;18.80;94.70;;;;;;5116978;28;20036;-82
2021/08/22 01:36:28;;;;;;;8.25;5.00;;;18.80;94.70;;;;;;5097091;28;20035;-82
2021/08/22 01:38:54;;;;;;;6.95;4.20;;;18.90;94.70;;;;;;5097790;28;20047;-83
2021/08/22 01:41:23;;;;;;;5.93;4.53;;;18.90;94.70;;;;;;5096505;28;20036;-82
2021/08/22 01:43:50;;;;;;;4.35;3.90;;;18.90;94.70;;;;;;5096575;28;20036;-82
2021/08/22 01:46:16;;;;;;;4.95;4.30;;;18.90;94.70;;;;;;5096227;28;20074;-82
2021/08/22 01:48:42;;;;;;;5.78;4.30;;;19.00;94.70;;;;;;5096920;28;20035;-82
2021/08/22 01:51:09;;;;;;;9.45;4.65;;;19.00;94.70;;;;;;5097105;28;20049;-82
2021/08/22 01:53:35;;;;;;;5.45;4.15;;;19.00;94.60;;;;;;5097441;28;20050;-82
2021/08/22 01:56:01;;;;;;;5.13;3.95;;;19.10;94.60;;;;;;5097422;28;20503;-82
2021/08/22 01:58:27;;;;;;;5.38;4.35;;;19.10;94.50;;;;;;5096880;28;20298;-82
2021/08/22 02:00:53;;;;;;;7.88;4.18;;;19.10;94.40;;;;;;5097218;28;20032;-81
2021/08/22 02:03:31;;;;;;;4.63;4.20;;;19.10;94.30;;;;;;5098854;28;20062;-82
2021/08/22 02:06:07;;;;;;;9.02;3.95;;;19.20;94.30;;;;;;5100486;28;20036;-82
2021/08/22 02:08:35;;;;;;;4.72;4.13;;;19.20;94.30;;;;;;5096263;28;20052;-82
2021/08/22 02:11:10;;;;;;;5.75;4.65;;;19.20;94.20;;;;;;5097304;28;20105;-82
2021/08/22 02:13:39;;;;;;;4.72;3.70;;;19.20;94.20;;;;;;5096948;28;20111;-82
2021/08/22 02:16:07;;;;;;;4.55;4.05;;;19.20;94.20;;;;;;5097225;28;20032;-82
2021/08/22 02:18:36;;;;;;;7.07;4.22;;;19.20;94.20;;;;;;5095649;28;20036;-82
2021/08/22 02:21:02;;;;;;;6.65;5.32;;;19.20;94.10;;;;;;5095572;28;20040;-82
2021/08/22 02:23:28;;;;;;;5.28;4.63;;;19.20;94.10;;;;;;5097261;28;20048;-82
2021/08/22 02:25:55;;;;;;;5.93;3.95;;;19.10;94.20;;;;;;5096051;28;20050;-82
2021/08/22 02:28:21;;;;;;;5.85;4.43;;;19.10;94.30;;;;;;5096877;28;20044;-82
2021/08/22 02:30:49;;;;;;;6.55;4.70;;;19.10;94.40;;;;;;5096497;28;20036;-82
2021/08/22 02:33:15;;;;;;;5.95;4.75;;;19.10;94.50;;;;;;5096358;28;20085;-83
2021/08/22 02:35:40;;;;;;;8.63;4.82;;;19.10;94.60;;;;;;5095766;28;20036;-82
2021/08/22 02:38:05;;;;;;;5.80;5.20;;;19.10;94.70;;;;;;5095339;28;20036;-82
2021/08/22 02:40:31;;;;;;;6.75;5.00;;;19.10;94.80;;;;;;5095978;28;20052;-82
2021/08/22 02:42:56;;;;;;;6.35;4.63;;;19.20;94.90;;;;;;5096180;28;20032;-82
2021/08/22 02:45:22;;;;;;;6.45;4.88;;;19.10;94.80;;;;;;5096678;28;20127;-82
2021/08/22 02:47:47;;;;;;;7.43;5.10;;;19.10;94.80;;;;;;5095135;28;20048;-83
2021/08/22 02:50:13;;;;;;;6.78;5.05;;;19.10;94.70;;;;;;5096668;28;20154;-82
2021/08/22 02:52:39;;;;;;;6.35;5.47;;;19.20;94.70;;;;;;5095408;28;20043;-82
2021/08/22 02:55:05;;;;;;;6.93;4.85;;;19.20;94.70;;;;;;5095898;28;20050;-82
2021/08/22 02:57:31;;;;;;;6.95;4.32;;;19.20;94.70;;;;;;5095539;28;20130;-82
2021/08/22 02:59:56;;;;;;;5.47;4.30;;;19.20;94.70;;;;;;5095206;28;20127;-82
2021/08/22 03:02:22;;;;;;;6.25;4.60;;;19.20;95.10;;;;;;5095787;28;20036;-82
2021/08/22 03:04:47;;;;;;;7.47;4.88;;;19.20;94.60;;;;;;5096069;28;20105;-82
2021/08/22 03:07:13;;;;;;;7.65;5.20;;;19.20;94.60;;;;;;5095737;28;20310;-82
2021/08/22 03:09:38;;;;;;;11.98;5.07;;;19.20;94.60;;;;;;5095850;28;20096;-82
2021/08/22 03:12:04;;;;;;;7.32;5.07;;;19.10;94.60;;;;;;5095341;28;20040;-83
2021/08/22 03:14:30;;;;;;;5.30;4.00;;;19.10;94.70;;;;;;5095310;28;20309;-82
2021/08/22 03:16:55;;;;;;;5.32;4.75;;;19.10;94.70;;;;;;5095387;28;20100;-82
2021/08/22 03:19:21;;;;;;;8.02;4.15;;;19.10;94.70;;;;;;5095349;28;20064;-82
2021/08/22 03:21:47;;;;;;;5.60;4.32;;;19.00;94.60;;;;;;5095430;28;20383;-83
2021/08/22 03:24:13;;;;;;;6.22;4.65;;;19.00;94.70;;;;;;5096182;28;20040;-83
2021/08/22 03:26:39;;;;;;;5.25;4.72;;;19.00;94.70;;;;;;5095283;28;20040;-83
2021/08/22 03:29:06;;;;;;;5.13;4.45;;;19.00;94.80;;;;;;5095621;28;20032;-83
2021/08/22 03:31:32;;;;;;;8.18;4.85;;;19.00;94.90;;;;;;5095564;28;20111;-82
2021/08/22 03:33:57;;;;;;;7.68;5.18;;;18.90;95.00;;;;;;5094915;28;20413;-83
2021/08/22 03:36:23;;;;;;;9.02;5.05;;;18.90;95.00;;;;;;5111903;28;20393;-82
2021/08/22 03:38:48;;;;;;;7.35;4.88;;;18.90;95.10;;;;;;5115434;28;20031;-83
2021/08/22 03:41:14;;;;;;;7.38;6.20;;;18.90;95.20;;;;;;5116625;28;20332;-82
2021/08/22 03:43:39;;;;;;;8.88;5.93;;;18.90;95.20;;;;;;5116139;28;20038;-83
2021/08/22 03:46:05;;;;;;;7.57;5.25;;;18.80;95.30;;;;;;5115453;28;20043;-83
2021/08/22 03:48:31;;;;;;;9.82;6.63;;;18.80;95.30;;;;;;5116025;28;20031;-83
2021/08/22 03:50:56;;;;;;;7.82;6.03;;;18.80;95.40;;;;;;5132594;28;20366;-82
2021/08/22 03:53:21;;;;;;;8.68;6.45;;;18.70;95.40;;;;;;5132944;27;20036;-82
2021/08/22 03:55:47;;;;;;;7.60;5.03;;;18.70;95.50;;;;;;5115678;28;20069;-83
2021/08/22 03:58:13;;;;;;;6.78;5.50;;;18.60;95.60;;;;;;5115589;28;20328;-82
2021/08/22 04:00:38;;;;;;;9.05;5.85;;;18.60;95.70;;;;;;5116002;28;20086;-83
2021/08/22 04:03:04;;;;;;;5.50;4.85;;;18.60;95.80;;;;;;5116816;28;20097;-82
2021/08/22 04:05:30;;;;;;;7.47;5.55;;;18.50;95.90;;;;;;5118385;28;20058;-83
2021/08/22 04:07:58;;;;;;;11.48;5.63;;;18.50;96.00;;;;;;5119007;28;20043;-83
2021/08/22 04:10:25;;;;;;;5.88;4.57;;;18.50;96.10;;;;;;5119636;28;20035;-82
2021/08/22 04:12:51;;;;;;;7.93;5.63;;;18.50;96.10;;;;;;5118728;28;20423;-82
2021/08/22 04:15:17;;;;;;;9.35;5.72;;;18.40;96.20;;;;;;5119839;28;20032;-84
2021/08/22 04:17:42;;;;;;;8.27;5.63;;;18.40;96.30;;;;;;5118911;28;20075;-83
2021/08/22 04:20:08;;;;;;;6.63;5.28;;;18.40;96.30;;;;;;5119553;28;20152;-82
2021/08/22 04:22:37;;;;;;;8.63;5.80;;;18.40;96.40;;;;;;5119322;28;20039;-83
2021/08/22 04:25:05;;;;;;;8.90;5.13;;;18.30;96.40;;;;;;5135088;27;20039;-83
2021/08/22 04:27:32;;;;;;;11.98;5.68;;;18.30;96.40;;;;;;5118813;28;20177;-83
2021/08/22 04:29:58;;;;;;;8.57;5.85;;;18.40;96.50;;;;;;5118375;28;20471;-83
2021/08/22 04:32:23;;;;;;;6.70;5.22;;;18.30;96.50;;;;;;5135429;27;20096;-83
2021/08/22 04:34:49;;;;;;;7.00;4.97;;;18.40;96.60;;;;;;5134971;27;20419;-82
2021/08/22 04:37:14;;;;;;;7.57;5.57;;;18.30;96.60;;;;;;5135646;27;20039;-83
2021/08/22 04:39:39;;;;;;;6.82;4.97;;;18.40;96.60;;;;;;5135385;27;20128;-84
2021/08/22 04:42:05;;;;;;;5.80;4.78;;;18.30;96.60;;;;;;5118423;28;20054;-83
2021/08/22 04:44:30;;;;;;;5.80;4.55;;;18.40;96.50;;;;;;5118814;28;20365;-83
2021/08/22 04:46:56;;;;;;;11.25;5.10;;;18.40;96.40;;;;;;5118565;28;20039;-83
2021/08/22 04:49:21;;;;;;;5.75;4.50;;;18.40;96.40;;;;;;5118969;28;20423;-83
2021/08/22 04:51:47;;;;;;;6.10;4.57;;;18.40;96.40;;;;;;5118225;28;20032;-83
2021/08/22 04:54:12;;;;;;;5.32;4.43;;;18.40;96.40;;;;;;5119037;28;20040;-83
2021/08/22 04:56:41;;;;;;;5.28;4.32;;;18.40;96.40;;;;;;5134946;27;20035;-83
2021/08/22 04:59:08;;;;;;;4.88;4.20;;;18.50;96.40;;;;;;5117476;28;20043;-84
2021/08/22 05:01:34;;;;;;;5.85;5.13;;;18.50;96.40;;;;;;5118605;28;20499;-84
2021/08/22 05:03:59;;;;;;;5.47;4.35;;;18.50;96.50;;;;;;5118808;28;20076;-83
2021/08/22 05:06:24;;;;;;;6.47;4.88;;;18.60;96.50;;;;;;5117567;28;20351;-83
2021/08/22 05:08:50;;;;;;;6.10;4.55;;;18.60;96.20;;;;;;5117601;28;20055;-83
2021/08/22 05:11:15;;;;;;;6.05;4.53;;;18.70;96.20;;;;;;5117693;28;20042;-84
2021/08/22 05:13:41;;;;;;;7.90;4.15;;;18.70;96.20;;;;;;5117571;28;20035;-83
2021/08/22 05:16:07;;;;;;;7.07;5.00;;;18.80;96.10;;;;;;5134004;27;20039;-83
2021/08/22 05:18:33;;;;;;;5.88;4.60;;;18.80;95.80;;;;;;5117153;28;20416;-83
2021/08/22 05:20:58;;;;;;;6.40;4.47;;;18.90;95.80;;;;;;5117456;28;20054;-84
2021/08/22 05:23:24;;;;;;;9.27;4.35;;;19.00;95.70;;;;;;5117348;28;20054;-84
2021/08/22 05:25:49;;;;;;;5.15;4.53;;;19.00;95.70;;;;;;5117770;28;20316;-84
2021/08/22 05:28:16;;;;;;;5.22;4.40;;;19.10;95.70;;;;;;5117166;28;20060;-84
2021/08/22 05:30:41;;;;;;;4.88;3.90;;;19.10;95.70;;;;;;5117941;28;20038;-84
2021/08/22 05:33:07;;;;;;;7.45;4.38;;;19.20;95.30;;;;;;5118178;28;20313;-83
2021/08/22 05:35:33;;;;;;;7.55;3.55;;;19.30;95.40;;;;;;5117972;28;20046;-83
2021/08/22 05:37:58;;;;;;;5.55;4.32;;;19.30;95.30;;;;;;5116986;28;20047;-84
2021/08/22 05:40:24;;;;;;;6.43;4.13;;;19.40;95.20;;;;;;5118148;28;20039;-84
2021/08/22 05:42:49;;;;;;;3.70;3.25;;;19.40;95.20;;;;;;5130963;27;20476;-82
2021/08/22 05:45:15;;;;;;;4.60;3.53;;;19.50;95.30;;;;;;5118196;28;20078;-82
2021/08/22 05:47:40;;;;;;;4.13;3.25;;;19.50;95.30;;;;;;5122257;28;20058;-83
2021/08/22 05:50:06;;;;;;;4.43;3.80;;;19.50;95.10;;;;;;5137117;27;20080;-84
2021/08/22 05:52:36;;;;;;;5.63;3.90;;;19.60;95.10;;;;;;5116799;28;20415;-82
2021/08/22 05:55:06;;;;;;;3.50;2.85;;;19.70;95.20;;;;;;5117196;28;20035;-82
2021/08/22 05:57:32;;;;;;;5.25;3.67;;;19.80;95.10;;;;;;5117567;27;20050;-83
2021/08/22 05:59:58;;;;;;;4.78;3.47;;;19.90;95.00;;;;;;5107059;28;20310;-84
2021/08/22 06:02:23;;;;;;;5.18;4.10;;;20.00;94.90;;;;;;5096327;28;20089;-84
2021/08/22 06:04:49;;;;;;;3.80;3.40;;;20.10;94.80;;;;;;5096577;28;20054;-84
2021/08/22 06:07:21;;;;;;;5.07;3.58;;;20.20;94.40;;;;;;5096995;28;20271;-81
2021/08/22 06:09:58;;;;;;;7.77;3.53;;;20.30;94.20;;;;;;5096895;28;20297;-82
2021/08/22 06:12:23;;;;;;;4.60;3.17;;;20.40;94.00;;;;;;5096557;28;20035;-83
2021/08/22 06:14:49;;;;;;;4.80;2.88;;;20.60;93.90;;;;;;5095676;28;20125;-82
2021/08/22 06:17:14;;;;;;;3.70;2.85;;;20.70;94.10;;;;;;5097032;28;20409;-83
2021/08/22 06:19:40;;;;;;;4.20;3.08;;;20.80;94.00;;;;;;5095745;28;20126;-82
2021/08/22 06:22:05;;;;;;;4.82;3.22;;;21.00;93.70;;;;;;5096041;28;20275;-86
2021/08/22 06:24:32;;;;;;;6.25;3.15;;;21.10;93.10;;;;;;5095974;28;20067;-83
2021/08/22 06:26:58;;;;;;;5.50;3.03;;;21.30;92.60;;;;;;5094884;28;20048;-84
2021/08/22 06:29:24;;;;;;;4.85;2.92;;;21.40;92.40;;;;;;5096133;28;20302;-83
2021/08/22 06:31:50;;;;;;;3.80;3.20;;;21.50;92.30;;;;;;5096673;28;20332;-84
2021/08/22 06:34:16;;;;;;;5.22;3.80;;;21.60;92.00;;;;;;5096486;28;20059;-85
2021/08/22 06:36:41;;;;;;;3.08;2.60;;;21.70;91.70;;;;;;5096645;28;20071;-83
2021/08/22 06:39:07;;;;;;;5.05;3.33;;;21.80;92.10;;;;;;5096655;28;20101;-83
2021/08/22 06:41:33;;;;;;;3.80;3.20;;;21.80;91.90;;;;;;5096853;28;20104;-83
2021/08/22 06:43:59;;;;;;;5.97;3.97;;;21.80;91.60;;;;;;5095742;28;20162;-84
2021/08/22 06:46:24;;;;;;;5.32;3.38;;;21.80;91.30;;;;;;5095715;28;20123;-84
2021/08/22 06:48:50;;;;;;;4.68;3.40;;;21.80;91.40;;;;;;5096475;28;20064;-84
2021/08/22 06:51:16;;;;;;;4.47;3.05;;;21.80;91.40;;;;;;5096525;28;20036;-83
2021/08/22 06:53:41;;;;;;;3.50;2.38;;;21.80;91.50;;;;;;5094388;28;20036;-83
2021/08/22 06:56:07;;;;;;;4.32;3.00;;;21.80;91.50;;;;;;5095507;28;20044;-83
2021/08/22 06:58:32;;;;;;;5.50;4.05;;;21.80;91.70;;;;;;5096028;28;20051;-84
2021/08/22 07:00:57;;;;;;;6.22;3.30;;;21.80;91.50;;;;;;5095829;28;20082;-83
2021/08/22 07:03:23;;;;;;;5.50;3.30;;;21.80;91.80;;;;;;5095719;28;20048;-83
2021/08/22 07:05:48;;;;;;;3.60;3.05;;;21.70;91.80;;;;;;5096320;28;20035;-83
2021/08/22 07:08:14;;;;;;;5.03;3.42;;;21.70;91.60;;;;;;5096606;28;20330;-84
2021/08/22 07:10:40;;;;;;;3.75;3.00;;;21.70;91.80;;;;;;5095949;28;20043;-83
2021/08/22 07:13:06;;;;;;;5.82;3.78;;;21.70;92.10;;;;;;5095905;28;20040;-84
2021/08/22 07:15:31;;;;;;;3.53;2.75;;;21.70;92.00;;;;;;5095011;28;20109;-83
2021/08/22 07:17:57;;;;;;;3.92;3.13;;;21.70;91.80;;;;;;5096148;28;20506;-83
2021/08/22 07:20:22;;;;;;;4.07;3.13;;;21.70;91.80;;;;;;5096824;28;20126;-83
2021/08/22 07:22:48;;;;;;;4.20;2.95;;;21.70;92.10;;;;;;5095756;28;20433;-84
2021/08/22 07:25:13;;;;;;;5.00;3.10;;;21.70;92.20;;;;;;5096224;28;20048;-83
2021/08/22 07:27:39;;;;;;;3.60;2.78;;;21.70;92.10;;;;;;5096084;28;20047;-84
2021/08/22 07:30:05;;;;;;;3.75;3.35;;;21.80;91.80;;;;;;5094796;28;20043;-84
2021/08/22 07:32:30;;;;;;;4.10;3.20;;;21.80;92.10;;;;;;5095132;28;20028;-83
2021/08/22 07:34:56;;;;;;;4.55;3.30;;;21.90;91.90;;;;;;5095418;28;20036;-84
2021/08/22 07:37:21;;;;;;;4.55;2.80;;;21.90;91.70;;;;;;5095386;28;20130;-83
2021/08/22 07:39:47;;;;;;;5.78;3.10;;;22.00;91.60;;;;;;5098067;28;20032;-83
2021/08/22 07:42:12;;;;;;;7.20;3.67;;;22.10;91.80;;;;;;5099974;28;20035;-84
2021/08/22 07:44:38;;;;;;;4.00;3.00;;;22.10;91.80;;;;;;5098969;28;20044;-84
2021/08/22 07:47:03;;;;;;;4.55;3.05;;;22.20;91.60;;;;;;5098903;28;20378;-84
2021/08/22 07:49:29;;;;;;;3.50;2.75;;;22.30;91.60;;;;;;5098887;28;20132;-84
2021/08/22 07:51:54;;;;;;;3.90;2.90;;;22.40;91.70;;;;;;5100704;28;20117;-83
2021/08/22 07:54:20;;;;;;;7.05;3.53;;;22.50;91.10;;;;;;5100303;28;20386;-84
2021/08/22 07:56:45;;;;;;;4.07;3.15;;;22.50;91.00;;;;;;5099593;28;20036;-85
2021/08/22 07:59:11;;;;;;;3.65;2.97;;;22.60;90.70;;;;;;5098437;28;20044;-82
2021/08/22 08:01:37;;;;;;;3.25;2.88;;;22.70;90.80;;;;;;5098858;28;20535;-84
2021/08/22 08:04:03;;;;;;;3.78;2.83;;;22.70;91.00;;;;;;5098660;28;20048;-83
2021/08/22 08:06:29;;;;;;;4.97;3.80;;;22.70;90.70;;;;;;5098702;28;20140;-84
2021/08/22 08:08:54;;;;;;;4.15;3.47;;;22.70;90.70;;;;;;5099635;28;20036;-83
2021/08/22 08:11:20;;;;;;;4.30;3.17;;;22.80;91.00;;;;;;5098189;28;20032;-83
2021/08/22 08:13:45;;;;;;;3.92;2.97;;;22.70;90.60;;;;;;5098425;28;20032;-84
2021/08/22 08:16:10;;;;;;;3.83;3.13;;;22.70;91.00;;;;;;5099110;28;20440;-83
2021/08/22 08:18:36;;;;;;;4.97;3.30;;;22.70;90.90;;;;;;5098732;28;20345;-84
2021/08/22 08:21:03;;;;;;;3.38;2.92;;;22.70;90.90;;;;;;5098868;28;20105;-84
2021/08/22 08:23:29;;;;;;;4.10;3.00;;;22.70;91.10;;;;;;5097866;28;20135;-84
2021/08/22 08:25:54;;;;;;;5.30;3.08;;;22.70;91.20;;;;;;5099068;28;20130;-84
2021/08/22 08:28:20;;;;;;;4.15;2.92;;;22.60;91.20;;;;;;5098693;28;20130;-83
2021/08/22 08:30:46;;;;;;;3.50;2.67;;;22.60;91.70;;;;;;5099161;28;20101;-83
2021/08/22 08:33:11;;;;;;;5.90;4.07;;;22.50;92.00;;;;;;5098822;28;20114;-83
2021/08/22 08:35:37;;;;;;;6.25;3.80;;;22.60;92.70;;;;;;5099154;28;20039;-83
2021/08/22 08:38:03;;;;;;;4.60;3.50;;;22.50;92.70;;;;;;5098084;28;20076;-83
2021/08/22 08:40:28;;;;;;;5.22;3.85;;;22.50;93.20;;;;;;5097766;28;20109;-83
2021/08/22 08:43:01;;;;;;;3.20;2.90;;;22.40;93.40;;;;;;5098382;28;20109;-84
2021/08/22 08:45:41;;;;;;;3.90;3.25;;;22.40;93.70;;;;;;5097541;28;20061;-83
2021/08/22 08:48:07;;;;;;;5.43;3.58;;;22.50;94.30;;;;;;5097979;28;20048;-83
2021/08/22 08:51:10;;;;;;;7.18;3.75;;;22.50;94.60;;;;;;5096591;28;20131;-84
2021/08/22 08:54:02;;;;;;;4.57;3.10;;;22.70;93.80;;;;;;5098027;28;20036;-83
2021/08/22 08:56:29;;;;;;;3.20;2.80;;;22.80;93.70;;;;;;5097484;28;20460;-84
2021/08/22 08:58:55;;;;;;;4.15;2.90;;;22.90;93.80;;;;;;5097695;28;20313;-83
2021/08/22 09:01:20;;;;;;;3.70;3.28;;;23.10;94.20;;;;;;5098356;28;20081;-84
2021/08/22 09:04:08;;;;;;;4.10;3.42;;;23.20;93.80;;;;;;5097872;28;20131;-83
2021/08/22 09:06:52;;;;;;;4.50;3.75;;;23.40;93.70;;;;;;5098127;28;20425;-83
2021/08/22 09:09:55;;;;;;;3.67;3.20;;;23.40;93.80;;;;;;5097297;28;20052;-84
2021/08/22 09:12:39;;;;;;;;;;;23.60;92.80;;;;;;5098086;28;20032;-84
2021/08/22 09:15:46;;;;;;;4.80;3.60;;;23.60;92.10;;;;;;5097159;28;19912;-83
2021/08/22 09:18:48;;;;;;;5.38;3.83;;;23.70;92.70;;;;;;5097423;28;20131;-83
2021/08/22 09:21:34;;;;;;;3.35;2.88;;;23.80;92.70;;;;;;5096943;28;20047;-83
2021/08/22 09:24:18;;;;;;;4.03;3.38;;;23.80;92.30;;;;;;5096899;28;20699;-84
2021/08/22 09:27:04;;;;;;;5.20;3.28;;;23.90;92.00;;;;;;5098118;28;20050;-84
2021/08/22 09:30:21;;;;;;;3.30;3.00;;;24.00;91.20;;;;;;5097681;28;20040;-84
2021/08/22 09:33:24;;;;;;;6.70;3.13;;;24.10;91.50;;;;;;5102086;28;20032;-84
2021/08/22 09:36:37;;;;;;;3.67;3.10;;;24.20;90.70;;;;;;5102725;28;20497;-83
2021/08/22 09:39:28;;;;;;;5.00;3.17;;;24.20;90.80;;;;;;5097695;28;20051;-84
2021/08/22 09:42:24;;;;;;;2.95;2.65;;;24.30;90.90;;;;;;5098053;28;20036;-84
2021/08/22 09:45:27;;;;;;;2.90;2.58;;;24.50;90.60;;;;;;5097363;28;20040;-84
2021/08/22 09:48:30;;;;;;;2.60;2.03;;;24.70;88.10;;;;;;5097670;28;20040;-84
2021/08/22 09:51:31;;;;;;;2.70;2.25;;;25.10;88.30;;;;;;5096577;28;20097;-84
2021/08/22 09:54:34;;;;;;;2.75;2.30;;;25.40;85.20;;;;;;5099913;28;20027;-84
2021/08/22 09:57:18;;;;;;;;;;;25.60;85.00;;;;;;5097445;28;20043;-85
2021/08/22 10:00:16;;;;;;;3.30;2.42;;;25.80;81.80;;;;;;5096938;28;19991;-84
2021/08/22 10:02:56;;;;;;;4.30;2.90;;;25.80;82.60;;;;;;5097506;28;20067;-84
2021/08/22 10:05:38;;;;;;;3.47;2.80;;;25.80;83.70;;;;;;5096433;28;20412;-84
2021/08/22 10:08:34;;;;;;;3.72;2.53;;;26.00;82.10;;;;;;5097133;28;20054;-84
2021/08/22 10:11:05;;;;;;;4.47;2.60;;;25.80;81.60;;;;;;5096416;28;20042;-85
2021/08/22 10:13:31;;;;;;;3.35;2.47;;;25.70;82.70;;;;;;5095443;28;20063;-84
2021/08/22 10:15:57;;;;;;;2.40;2.08;;;25.60;82.50;;;;;;5096140;28;20134;-83
2021/08/22 10:18:24;;;;;;;2.85;2.22;;;25.40;83.00;;;;;;5096139;28;20162;-84
2021/08/22 10:20:50;;;;;;;2.40;2.03;;;25.30;84.30;;;;;;5096505;28;20317;-84
2021/08/22 10:23:42;;;;;;;2.63;2.30;;;25.10;83.30;;;;;;5096932;28;20047;-84
2021/08/22 10:26:09;;;;;;;;;;;24.90;84.50;;;;;;5097060;28;20054;-84
2021/08/22 10:28:54;;;;;;;4.25;2.28;;;24.70;84.70;;;;;;5096068;28;20531;-84
2021/08/22 10:32:02;;;;;;;2.60;1.98;;;24.50;84.60;;;;;;5097742;28;20040;-84
2021/08/22 10:34:28;;;;;;;3.55;2.47;;;24.30;85.00;;;;;;5096696;28;20252;-83
2021/08/22 10:36:54;;;;;;;3.95;2.10;;;24.20;85.00;;;;;;5096268;28;20043;-84
2021/08/22 10:39:21;;;;;;;3.17;2.05;;;24.10;85.50;;;;;;5096818;28;20044;-84
2021/08/22 10:41:47;;;;;;;2.65;2.13;;;24.10;85.10;;;;;;5096055;28;20100;-84
2021/08/22 10:44:34;;;;;;;6.15;1.92;;;24.00;86.00;;;;;;5096761;28;20039;-84
2021/08/22 10:47:04;;;;;;;4.18;2.33;;;24.00;85.40;;;;;;5095098;28;20602;-84
2021/08/22 10:49:54;;;;;;;3.75;1.65;;;24.00;86.00;;;;;;5095718;28;20036;-84
2021/08/22 10:52:28;;;;;;;2.90;2.10;;;24.20;86.30;;;;;;5095319;28;20039;-85
2021/08/22 10:55:06;;;;;;;2.33;2.13;;;24.30;85.90;;;;;;5096296;28;20029;-84
2021/08/22 10:57:50;;;;;;;2.75;1.90;;;24.40;85.90;;;;;;5095616;28;20039;-84
2021/08/22 11:00:29;;;;;;;2.63;1.88;;;24.50;85.20;;;;;;5095838;28;20398;-84
2021/08/22 11:02:57;;;;;;;2.50;1.83;;;24.60;86.10;;;;;;5095393;28;20043;-84
2021/08/22 11:05:25;;;;;;;2.72;2.42;;;24.60;85.30;;;;;;5095922;28;20127;-85
2021/08/22 11:07:52;;;;;;;3.50;1.92;;;24.70;86.00;;;;;;5097428;28;20074;-84
2021/08/22 11:10:19;;;;;;;2.60;1.92;;;24.80;84.20;;;;;;5095336;28;20036;-84
2021/08/22 11:12:48;;;;;;;3.75;1.92;;;24.90;84.80;;;;;;5096604;28;20114;-85
2021/08/22 11:15:22;;;;;;;5.50;1.60;;;25.10;84.90;;;;;;5099470;28;20040;-84
2021/08/22 11:17:53;;;;;;;2.10;1.45;;;25.40;83.90;;;;;;5100463;28;20409;-84
2021/08/22 11:20:21;;;;;;;2.30;2.00;;;25.50;83.10;;;;;;5099512;28;20051;-85
2021/08/22 11:22:50;;;;;;;2.10;1.60;;;25.60;82.30;;;;;;5102363;28;20100;-84
2021/08/22 11:25:16;;;;;;;3.17;1.90;;;25.80;83.40;;;;;;5100493;28;20301;-85
2021/08/22 11:27:42;;;;;;;2.90;1.60;;;25.90;82.20;;;;;;5099064;28;20044;-84
2021/08/22 11:30:10;;;;;;;2.10;1.70;;;26.10;81.80;;;;;;5100394;28;20028;-84
2021/08/22 11:32:37;;;;;;;5.13;1.63;;;26.20;80.80;;;;;;5099074;28;20279;-84
2021/08/22 11:35:21;;;;;;;2.80;1.83;;;26.10;79.80;;;;;;5099492;28;20131;-83
2021/08/22 11:37:47;;;;;;;2.67;2.10;;;26.10;80.30;;;;;;5099967;28;20642;-85
2021/08/22 11:40:15;;;;;;;4.15;1.92;;;26.00;80.70;;;;;;5098971;28;20163;-84
2021/08/22 11:42:48;;;;;;;3.33;2.00;;;26.10;80.80;;;;;;5099614;28;20036;-84
2021/08/22 11:45:17;;;;;;;3.65;2.53;;;26.10;81.20;;;;;;5099263;28;20032;-83
2021/08/22 11:47:43;;;;;;;2.47;1.90;;;26.10;81.20;;;;;;5099936;28;20397;-84
2021/08/22 11:50:11;;;;;;;3.15;1.92;;;26.00;80.50;;;;;;5098492;28;20044;-84
2021/08/22 11:52:38;;;;;;;2.53;1.85;;;25.90;81.40;;;;;;5102232;28;20062;-84
2021/08/22 11:55:09;;;;;;;4.10;1.98;;;25.90;80.70;;;;;;5099319;28;20089;-84
2021/08/22 11:57:35;;;;;;;4.80;2.03;;;25.90;81.30;;;;;;5099994;28;20128;-83
2021/08/22 12:00:01;;;;;;;2.50;1.90;;;25.90;81.60;;;;;;5098252;28;20122;-83
2021/08/22 12:02:27;;;;;;;3.30;2.17;;;25.90;81.90;;;;;;5098932;28;20040;-84
2021/08/22 12:05:12;;;;;;;2.25;1.77;;;26.00;82.20;;;;;;5099153;28;20047;-83
2021/08/22 12:07:37;;;;;;;2.20;1.67;;;26.10;81.60;;;;;;5099379;28;20044;-84
2021/08/22 12:10:03;;;;;;;2.75;1.70;;;26.10;81.20;;;;;;5098540;28;20093;-83
2021/08/22 12:12:28;;;;;;;2.22;1.88;;;26.10;80.40;;;;;;5099396;28;20039;-83
2021/08/22 12:15:07;;;;;;;1.95;1.67;;;26.10;80.90;;;;;;5099238;28;20031;-83
2021/08/22 12:17:32;;;;;;;3.28;2.03;;;26.10;80.40;;;;;;5097743;28;20036;-83
2021/08/22 12:20:17;;;;;;;2.30;1.67;;;26.10;80.90;;;;;;5099003;28;20036;-84
2021/08/22 12:22:43;;;;;;;2.70;1.88;;;26.20;80.80;;;;;;5098469;28;20079;-84
2021/08/22 12:25:23;;;;;;;3.05;1.77;;;26.30;79.60;;;;;;5099242;28;20075;-85
2021/08/22 12:27:48;;;;;;;3.47;1.50;;;26.20;79.00;;;;;;5098788;28;20329;-84
2021/08/22 12:30:14;;;;;;;1.42;1.33;;;26.20;78.60;;;;;;5098220;28;20043;-84
2021/08/22 12:32:40;;;;;;;1.92;1.38;;;26.10;79.60;;;;;;5098454;28;20263;-83
2021/08/22 12:35:07;;;;;;;2.65;1.70;;;26.10;79.20;;;;;;5098607;28;20093;-84
2021/08/22 12:37:33;;;;;;;2.00;1.55;;;26.10;79.30;;;;;;5098370;28;20035;-84
2021/08/22 12:40:00;;;;;;;2.03;1.75;;;26.10;80.50;;;;;;5097809;28;20108;-83
2021/08/22 12:42:26;;;;;;;2.72;1.58;;;26.00;78.50;;;;;;5097941;28;20437;-84
2021/08/22 12:44:53;;;;;;;2.55;1.77;;;26.00;78.80;;;;;;5098078;28;20032;-84
2021/08/22 12:47:19;;;;;;;2.67;2.13;;;26.00;79.60;;;;;;5098715;28;20044;-83
2021/08/22 12:49:44;;;;;;;2.75;1.75;;;26.00;79.90;;;;;;5097370;28;20044;-84
2021/08/22 12:52:10;;;;;;;1.88;1.50;;;26.00;79.60;;;;;;5097482;28;20075;-85
2021/08/22 12:54:37;;;;;;;2.72;1.63;;;26.10;79.70;;;;;;5098137;28;20024;-84
2021/08/22 12:57:03;;;;;;;2.10;1.90;;;26.10;79.70;;;;;;5097614;28;20054;-83
2021/08/22 12:59:29;;;;;;;1.60;1.30;;;26.10;79.00;;;;;;5097487;28;20040;-83